createdAt,value
2022-08-21T00:00:27.483Z,20.66
2022-08-21T00:03:06.691Z,20.65
2022-08-21T00:05:41.110Z,20.70
2022-08-21T00:08:11.781Z,20.62
2022-08-21T00:10:42.767Z,20.62
2022-08-21T00:13:19.016Z,20.63
2022-08-21T00:15:50.636Z,20.62
2022-08-21T00:18:21.448Z,20.63
2022-08-21T00:20:51.630Z,20.65
2022-08-21T00:23:21.850Z,20.65
2022-08-21T00:25:52.793Z,20.63
2022-08-21T00:28:25.573Z,20.67
2022-08-21T00:30:55.691Z,20.63
2022-08-21T00:33:25.951Z,20.71
2022-08-21T00:35:56.570Z,20.70
2022-08-21T00:38:26.472Z,20.68
2022-08-21T00:41:13.445Z,20.68
2022-08-21T00:43:54.966Z,20.69
2022-08-21T00:46:28.237Z,20.66
2022-08-21T00:48:59.414Z,20.65
2022-08-21T00:51:38.462Z,20.70
2022-08-21T00:54:15.464Z,20.72
2022-08-21T00:56:49.813Z,20.72
2022-08-21T00:59:25.302Z,20.73
2022-08-21T01:01:55.734Z,20.77
2022-08-21T01:04:28.010Z,20.76
2022-08-21T01:06:58.605Z,20.72
2022-08-21T01:09:28.992Z,20.74
2022-08-21T01:11:59.925Z,20.76
2022-08-21T01:14:33.127Z,20.80
2022-08-21T01:17:05.363Z,20.82
2022-08-21T01:19:35.904Z,20.89
2022-08-21T01:22:09.178Z,20.87
2022-08-21T01:24:39.665Z,20.80
2022-08-21T01:27:10.003Z,20.74
2022-08-21T01:29:46.328Z,20.70
2022-08-21T01:32:21.975Z,20.62
2022-08-21T01:34:55.204Z,20.57
2022-08-21T01:37:28.122Z,20.53
2022-08-21T01:39:58.406Z,20.46
2022-08-21T01:42:28.908Z,20.49
2022-08-21T01:44:59.120Z,20.49
2022-08-21T01:47:29.598Z,20.51
2022-08-21T01:49:59.746Z,20.47
2022-08-21T01:52:33.045Z,20.48
2022-08-21T01:55:03.733Z,20.46
2022-08-21T01:57:33.964Z,20.39
2022-08-21T02:00:04.240Z,20.44
2022-08-21T02:02:42.370Z,20.46
2022-08-21T02:05:15.798Z,20.46
2022-08-21T02:07:51.605Z,20.43
2022-08-21T02:10:27.261Z,20.42
2022-08-21T02:12:58.317Z,20.42
2022-08-21T02:15:28.990Z,20.36
2022-08-21T02:18:02.638Z,20.38
2022-08-21T02:20:38.007Z,20.41
2022-08-21T02:23:13.790Z,20.38
2022-08-21T02:25:46.859Z,20.42
2022-08-21T02:28:18.723Z,20.46
2022-08-21T02:30:51.952Z,20.47
2022-08-21T02:33:22.584Z,20.46
2022-08-21T02:35:54.082Z,20.40
2022-08-21T02:38:31.838Z,20.40
2022-08-21T02:41:02.130Z,20.40
2022-08-21T02:43:32.887Z,20.47
2022-08-21T02:46:03.744Z,20.43
2022-08-21T02:48:36.015Z,20.40
2022-08-21T02:51:11.000Z,20.40
2022-08-21T02:53:45.252Z,20.31
2022-08-21T02:56:20.450Z,20.35
2022-08-21T02:58:54.264Z,20.34
2022-08-21T03:01:24.874Z,20.31
2022-08-21T03:03:55.209Z,20.30
2022-08-21T03:06:26.674Z,20.29
2022-08-21T03:08:59.504Z,20.32
2022-08-21T03:11:29.950Z,20.31
2022-08-21T03:14:00.476Z,20.27
2022-08-21T03:16:34.773Z,20.34
2022-08-21T03:19:05.737Z,20.42
2022-08-21T03:21:35.935Z,20.38
2022-08-21T03:24:10.087Z,20.31
2022-08-21T03:26:41.477Z,20.27
2022-08-21T03:29:11.947Z,20.40
2022-08-21T03:31:42.104Z,20.46
2022-08-21T03:34:13.076Z,20.45
2022-08-21T03:36:43.427Z,20.43
2022-08-21T03:39:16.292Z,20.43
2022-08-21T03:41:46.532Z,20.37
2022-08-21T03:44:16.809Z,20.49
2022-08-21T03:46:46.961Z,20.51
2022-08-21T03:49:17.181Z,20.48
2022-08-21T03:51:47.698Z,20.50
2022-08-21T03:54:32.141Z,20.53
2022-08-21T03:57:02.590Z,20.54
2022-08-21T03:59:32.782Z,20.53
2022-08-21T04:02:05.825Z,20.57
2022-08-21T04:04:37.224Z,20.59
2022-08-21T04:07:08.114Z,20.58
2022-08-21T04:09:40.988Z,20.52
2022-08-21T04:12:12.626Z,20.50
2022-08-21T04:14:42.928Z,20.50
2022-08-21T04:17:13.084Z,20.48
2022-08-21T04:19:43.292Z,20.43
2022-08-21T04:22:13.822Z,20.39
2022-08-21T04:24:47.206Z,20.31
2022-08-21T04:27:17.356Z,20.26
2022-08-21T04:29:47.498Z,20.29
2022-08-21T04:32:17.653Z,20.29
2022-08-21T04:34:47.918Z,20.29
2022-08-21T04:37:18.208Z,20.37
2022-08-21T04:39:53.531Z,20.45
2022-08-21T04:42:23.890Z,20.52
2022-08-21T04:44:54.376Z,20.55
2022-08-21T04:47:25.083Z,20.51
2022-08-21T04:50:15.481Z,20.44
2022-08-21T04:52:59.408Z,20.42
2022-08-21T04:55:32.662Z,20.45
2022-08-21T04:58:04.318Z,20.50
2022-08-21T05:00:34.530Z,20.49
2022-08-21T05:03:07.460Z,20.50
2022-08-21T05:05:38.291Z,20.51
2022-08-21T05:08:11.486Z,20.50
2022-08-21T05:10:45.526Z,20.48
2022-08-21T05:13:16.499Z,20.53
2022-08-21T05:15:46.678Z,20.63
2022-08-21T05:18:17.599Z,20.68
2022-08-21T05:20:48.478Z,20.68
2022-08-21T05:23:19.187Z,20.71
2022-08-21T05:25:51.670Z,20.73
2022-08-21T05:28:21.917Z,20.85
2022-08-21T05:30:52.088Z,20.91
2022-08-21T05:33:22.246Z,20.96
2022-08-21T05:35:56.788Z,20.96
2022-08-21T05:38:28.320Z,21.02
2022-08-21T05:41:01.191Z,21.06
2022-08-21T05:43:31.510Z,21.09
2022-08-21T05:46:01.701Z,21.18
2022-08-21T05:48:31.879Z,21.27
2022-08-21T05:51:09.248Z,21.27
2022-08-21T05:53:39.789Z,21.39
2022-08-21T05:56:13.823Z,21.41
2022-08-21T05:58:44.486Z,21.45
2022-08-21T06:01:15.861Z,21.52
2022-08-21T06:03:46.846Z,21.53
2022-08-21T06:06:17.029Z,21.59
2022-08-21T06:08:47.649Z,21.61
2022-08-21T06:11:20.919Z,21.64
2022-08-21T06:13:51.179Z,21.81
2022-08-21T06:16:22.188Z,21.83
2022-08-21T06:18:53.133Z,21.86
2022-08-21T06:21:25.990Z,21.92
2022-08-21T06:23:56.751Z,21.97
2022-08-21T06:26:30.297Z,22.01
2022-08-21T06:29:00.578Z,22.06
2022-08-21T06:31:32.330Z,22.01
2022-08-21T06:34:02.970Z,21.96
2022-08-21T06:36:32.951Z,21.84
2022-08-21T06:39:02.999Z,21.73
2022-08-21T06:41:49.480Z,21.76
2022-08-21T06:44:21.147Z,21.75
2022-08-21T06:46:51.644Z,21.75
2022-08-21T06:49:21.855Z,21.77
2022-08-21T06:51:52.170Z,21.87
2022-08-21T06:54:22.344Z,21.88
2022-08-21T06:56:55.151Z,21.92
2022-08-21T06:59:25.254Z,21.89
2022-08-21T07:01:55.483Z,21.83
2022-08-21T07:04:25.706Z,21.85
2022-08-21T07:06:56.013Z,21.87
2022-08-21T07:09:26.183Z,21.85
2022-08-21T07:12:01.655Z,21.88
2022-08-21T07:14:32.020Z,21.81
2022-08-21T07:17:02.284Z,21.76
2022-08-21T07:19:32.544Z,21.68
2022-08-21T07:22:05.675Z,21.65
2022-08-21T07:24:35.766Z,21.70
2022-08-21T07:27:10.159Z,21.70
2022-08-21T07:29:40.608Z,21.74
2022-08-21T07:32:11.129Z,21.70
2022-08-21T07:34:41.394Z,21.79
2022-08-21T07:37:11.698Z,21.92
2022-08-21T07:39:41.940Z,21.96
2022-08-21T07:42:14.994Z,22.05
2022-08-21T07:44:45.453Z,22.15
2022-08-21T07:47:15.726Z,22.28
2022-08-21T07:49:59.819Z,22.35
2022-08-21T07:52:31.168Z,22.37
2022-08-21T07:55:06.101Z,22.35
2022-08-21T07:57:39.769Z,22.26
2022-08-21T08:00:14.557Z,22.19
2022-08-21T08:02:44.921Z,22.28
2022-08-21T08:05:15.596Z,22.33
2022-08-21T08:07:46.221Z,22.29
2022-08-21T08:10:16.184Z,22.38
2022-08-21T08:12:49.811Z,22.41
2022-08-21T08:15:24.029Z,22.33
2022-08-21T08:17:55.946Z,22.17
2022-08-21T08:20:27.435Z,22.12
2022-08-21T08:22:58.797Z,22.18
2022-08-21T08:25:36.248Z,22.28
2022-08-21T08:28:16.478Z,22.48
2022-08-21T08:30:50.292Z,22.68
2022-08-21T08:33:21.309Z,22.72
2022-08-21T08:35:54.700Z,22.94
2022-08-21T08:38:26.720Z,23.11
2022-08-21T08:41:14.668Z,23.38
2022-08-21T08:43:55.020Z,23.24
2022-08-21T08:46:34.931Z,23.35
2022-08-21T08:49:12.390Z,23.43
2022-08-21T08:51:53.024Z,23.52
2022-08-21T08:54:32.639Z,23.59
2022-08-21T08:57:04.173Z,23.77
2022-08-21T08:59:45.986Z,23.78
2022-08-21T09:02:18.589Z,23.66
2022-08-21T09:04:52.894Z,23.65
2022-08-21T09:07:40.298Z,23.78
2022-08-21T09:10:19.715Z,23.95
2022-08-21T09:13:01.249Z,24.20
2022-08-21T09:15:44.906Z,24.67
2022-08-21T09:18:35.433Z,25.13
2022-08-21T09:21:14.615Z,25.21
2022-08-21T09:23:58.299Z,25.44
2022-08-21T09:26:31.172Z,25.52
2022-08-21T09:29:04.470Z,25.45
2022-08-21T09:31:40.740Z,25.25
2022-08-21T09:34:14.893Z,25.01
2022-08-21T09:36:48.820Z,24.86
2022-08-21T09:39:29.293Z,24.74
2022-08-21T09:42:00.490Z,24.78
2022-08-21T09:44:34.071Z,24.83
2022-08-21T09:47:07.093Z,25.54
2022-08-21T09:49:40.684Z,26.61
2022-08-21T09:52:23.323Z,28.06
2022-08-21T09:54:58.215Z,28.89
2022-08-21T09:57:46.351Z,28.78
2022-08-21T10:00:24.448Z,28.71
2022-08-21T10:02:57.486Z,29.45
2022-08-21T10:05:30.754Z,29.91
2022-08-21T10:08:01.036Z,30.95
2022-08-21T10:10:39.632Z,32.20
2022-08-21T10:13:17.288Z,33.12
2022-08-21T10:15:55.177Z,33.06
2022-08-21T10:18:33.410Z,33.74
2022-08-21T10:21:12.001Z,34.50
2022-08-21T10:23:58.711Z,32.86
2022-08-21T10:26:45.146Z,33.00
2022-08-21T10:29:29.942Z,31.81
2022-08-21T10:32:25.967Z,31.03
2022-08-21T10:35:12.420Z,31.89
2022-08-21T10:38:02.714Z,33.17
2022-08-21T10:40:40.901Z,32.88
2022-08-21T10:43:27.970Z,32.75
2022-08-21T10:46:11.312Z,31.73
2022-08-21T10:48:50.827Z,31.07
2022-08-21T10:51:35.550Z,31.09
2022-08-21T10:54:14.253Z,30.81
2022-08-21T10:56:45.756Z,31.14
2022-08-21T10:59:38.091Z,31.45
2022-08-21T11:02:19.623Z,31.91
2022-08-21T11:04:58.366Z,31.60
2022-08-21T11:07:37.125Z,31.04
2022-08-21T11:10:17.418Z,30.38
2022-08-21T11:12:57.299Z,30.82
2022-08-21T11:15:43.024Z,31.13
2022-08-21T11:18:26.170Z,30.78
2022-08-21T11:21:08.538Z,30.72
2022-08-21T11:23:50.690Z,30.33
2022-08-21T11:26:32.227Z,29.89
2022-08-21T11:29:12.664Z,29.45
2022-08-21T11:31:59.429Z,29.37
2022-08-21T11:34:47.071Z,29.74
2022-08-21T11:37:28.234Z,30.04
2022-08-21T11:40:10.293Z,30.21
2022-08-21T11:42:51.473Z,30.44
2022-08-21T11:45:45.812Z,30.37
2022-08-21T11:48:33.940Z,31.25
2022-08-21T11:51:08.571Z,31.25
2022-08-21T11:53:54.075Z,31.13
2022-08-21T11:56:34.145Z,31.22
2022-08-21T11:59:10.631Z,30.67
2022-08-21T12:01:47.428Z,31.33
2022-08-21T12:04:32.323Z,33.54
2022-08-21T12:07:16.855Z,32.93
2022-08-21T12:09:58.953Z,32.33
2022-08-21T12:12:35.124Z,31.92
2022-08-21T12:15:20.370Z,32.67
2022-08-21T12:18:04.133Z,34.19
2022-08-21T12:20:50.837Z,35.01
2022-08-21T12:23:30.065Z,35.05
2022-08-21T12:26:22.293Z,35.56
2022-08-21T12:28:55.238Z,35.95
2022-08-21T12:31:32.185Z,34.90
2022-08-21T12:34:05.130Z,34.47
2022-08-21T12:36:47.964Z,34.66
2022-08-21T12:39:23.319Z,34.32
2022-08-21T12:42:01.948Z,33.53
2022-08-21T12:44:42.914Z,32.78
2022-08-21T12:47:21.935Z,33.07
2022-08-21T12:50:02.567Z,34.00
2022-08-21T12:52:39.614Z,34.82
2022-08-21T12:55:16.849Z,35.55
2022-08-21T12:57:47.068Z,36.10
2022-08-21T13:00:26.844Z,36.19
2022-08-21T13:02:59.414Z,35.16
2022-08-21T13:05:37.845Z,34.33
2022-08-21T13:08:10.395Z,35.41
2022-08-21T13:10:43.540Z,34.38
2022-08-21T13:13:25.640Z,33.49
2022-08-21T13:16:08.800Z,35.40
2022-08-21T13:19:00.423Z,35.20
2022-08-21T13:21:36.400Z,33.78
2022-08-21T13:24:42.951Z,33.05
2022-08-21T13:27:24.833Z,34.70
2022-08-21T13:30:09.193Z,35.19
2022-08-21T13:32:47.166Z,35.12
2022-08-21T13:35:21.381Z,35.14
2022-08-21T13:37:53.489Z,34.72
2022-08-21T13:40:32.643Z,34.99
2022-08-21T13:43:04.866Z,34.29
2022-08-21T13:45:37.124Z,34.64
2022-08-21T13:48:10.010Z,34.48
2022-08-21T13:50:42.366Z,34.28
2022-08-21T13:53:27.967Z,33.66
2022-08-21T13:56:00.687Z,33.36
2022-08-21T13:58:34.343Z,33.94
2022-08-21T14:01:06.662Z,34.56
2022-08-21T14:03:45.687Z,35.56
2022-08-21T14:06:17.212Z,35.31
2022-08-21T14:08:55.493Z,34.31
2022-08-21T14:11:26.781Z,33.68
2022-08-21T14:14:04.862Z,32.99
2022-08-21T14:16:48.039Z,33.03
2022-08-21T14:19:28.588Z,33.09
2022-08-21T14:21:59.029Z,33.21
2022-08-21T14:24:35.759Z,33.75
2022-08-21T14:27:10.040Z,33.66
2022-08-21T14:29:44.521Z,32.95
2022-08-21T14:32:21.627Z,32.40
2022-08-21T14:35:01.160Z,33.35
2022-08-21T14:37:31.483Z,33.79
2022-08-21T14:40:02.487Z,33.15
2022-08-21T14:42:33.104Z,32.67
2022-08-21T14:45:09.171Z,32.75
2022-08-21T14:47:39.340Z,32.65
2022-08-21T14:50:13.975Z,32.88
2022-08-21T14:52:46.728Z,32.35
2022-08-21T14:55:19.815Z,31.57
2022-08-21T14:57:54.487Z,31.01
2022-08-21T15:00:36.036Z,30.46
2022-08-21T15:03:06.768Z,31.48
2022-08-21T15:05:40.502Z,32.22
2022-08-21T15:08:10.974Z,31.75
2022-08-21T15:10:57.108Z,30.97
2022-08-21T15:13:32.233Z,30.90
2022-08-21T15:16:02.975Z,31.87
2022-08-21T15:18:34.535Z,32.66
2022-08-21T15:21:07.604Z,33.51
2022-08-21T15:23:39.949Z,32.25
2022-08-21T15:26:14.205Z,31.10
2022-08-21T15:28:44.967Z,30.44
2022-08-21T15:31:15.168Z,30.14
2022-08-21T15:33:45.439Z,29.81
2022-08-21T15:36:18.224Z,29.45
2022-08-21T15:38:49.607Z,30.76
2022-08-21T15:41:19.955Z,30.31
2022-08-21T15:43:55.560Z,30.19
2022-08-21T15:46:25.932Z,29.69
2022-08-21T15:48:59.735Z,29.24
2022-08-21T15:51:32.968Z,28.99
2022-08-21T15:54:03.740Z,28.75
2022-08-21T15:56:40.256Z,28.62
2022-08-21T15:59:16.921Z,28.59
2022-08-21T16:01:47.821Z,28.94
2022-08-21T16:04:27.985Z,29.03
2022-08-21T16:07:05.396Z,28.95
2022-08-21T16:09:37.911Z,28.77
2022-08-21T16:12:08.715Z,28.64
2022-08-21T16:14:39.987Z,28.54
2022-08-21T16:17:10.724Z,28.41
2022-08-21T16:19:41.465Z,28.31
2022-08-21T16:22:14.320Z,28.23
2022-08-21T16:24:44.679Z,28.05
2022-08-21T16:27:15.337Z,27.92
2022-08-21T16:29:48.732Z,27.80
2022-08-21T16:32:20.265Z,27.68
2022-08-21T16:34:52.709Z,27.48
2022-08-21T16:37:27.344Z,27.29
2022-08-21T16:39:57.673Z,27.16
2022-08-21T16:42:28.739Z,27.04
2022-08-21T16:44:59.668Z,26.92
2022-08-21T16:47:29.909Z,26.82
2022-08-21T16:49:59.844Z,26.69
2022-08-21T16:52:32.632Z,26.61
2022-08-21T16:55:02.798Z,26.38
2022-08-21T16:57:33.012Z,26.33
2022-08-21T17:00:04.877Z,26.29
2022-08-21T17:02:39.886Z,26.20
2022-08-21T17:05:13.984Z,26.13
2022-08-21T17:07:47.716Z,26.08
2022-08-21T17:10:19.661Z,25.97
2022-08-21T17:12:56.550Z,25.88
2022-08-21T17:15:31.279Z,25.83
2022-08-21T17:18:02.215Z,25.76
2022-08-21T17:20:33.278Z,25.67
2022-08-21T17:23:06.665Z,25.55
2022-08-21T17:25:37.622Z,25.50
2022-08-21T17:28:07.946Z,25.44
2022-08-21T17:30:42.898Z,25.37
2022-08-21T17:33:13.235Z,25.32
2022-08-21T17:35:46.719Z,25.21
2022-08-21T17:38:19.619Z,25.11
2022-08-21T17:40:51.160Z,25.06
2022-08-21T17:43:21.859Z,25.01
2022-08-21T17:45:52.150Z,24.91
2022-08-21T17:48:25.529Z,24.75
2022-08-21T17:50:55.941Z,24.63
2022-08-21T17:53:28.816Z,24.56
2022-08-21T17:55:59.395Z,24.47
2022-08-21T17:58:29.802Z,24.43
2022-08-21T18:01:00.364Z,24.34
2022-08-21T18:03:30.632Z,24.25
2022-08-21T18:06:07.889Z,24.17
2022-08-21T18:08:40.683Z,24.07
2022-08-21T18:11:23.772Z,23.93
2022-08-21T18:13:55.940Z,23.83
2022-08-21T18:16:26.725Z,23.79
2022-08-21T18:18:57.834Z,23.69
2022-08-21T18:21:28.784Z,23.60
2022-08-21T18:24:01.910Z,23.52
2022-08-21T18:26:35.821Z,23.47
2022-08-21T18:29:12.165Z,23.37
2022-08-21T18:31:46.395Z,23.26
2022-08-21T18:34:28.079Z,23.19
2022-08-21T18:36:59.957Z,23.11
2022-08-21T18:39:36.739Z,23.05
2022-08-21T18:42:13.606Z,22.95
2022-08-21T18:44:47.908Z,22.86
2022-08-21T18:47:26.006Z,22.80
2022-08-21T18:49:56.714Z,22.76
2022-08-21T18:52:28.567Z,22.72
2022-08-21T18:55:05.888Z,22.68
2022-08-21T18:57:40.005Z,22.56
2022-08-21T19:00:15.472Z,22.46
2022-08-21T19:02:46.488Z,22.36
2022-08-21T19:05:20.210Z,22.26
2022-08-21T19:07:55.232Z,22.16
2022-08-21T19:10:29.567Z,22.10
2022-08-21T19:13:04.175Z,22.02
2022-08-21T19:15:39.932Z,21.93
2022-08-21T19:18:21.398Z,21.86
2022-08-21T19:20:59.165Z,21.85
2022-08-21T19:23:31.328Z,21.82
2022-08-21T19:26:11.123Z,21.79
2022-08-21T19:28:49.188Z,21.75
2022-08-21T19:31:23.611Z,21.75
2022-08-21T19:34:01.518Z,21.76
2022-08-21T19:36:49.736Z,21.69
2022-08-21T19:39:21.458Z,21.64
2022-08-21T19:41:58.202Z,21.62
2022-08-21T19:44:32.084Z,21.62
2022-08-21T19:47:09.238Z,21.58
2022-08-21T19:49:46.562Z,21.56
2022-08-21T19:52:18.359Z,21.54
2022-08-21T19:54:49.280Z,21.60
2022-08-21T19:57:22.833Z,21.65
2022-08-21T19:59:53.406Z,21.66
2022-08-21T20:02:25.542Z,21.65
2022-08-21T20:04:56.047Z,21.54
2022-08-21T20:07:27.131Z,21.39
2022-08-21T20:09:57.851Z,21.42
2022-08-21T20:12:30.552Z,21.38
2022-08-21T20:15:02.011Z,21.44
2022-08-21T20:17:32.464Z,21.42
2022-08-21T20:20:02.937Z,21.37
2022-08-21T20:22:33.767Z,21.32
2022-08-21T20:25:04.318Z,21.23
2022-08-21T20:27:41.293Z,21.15
2022-08-21T20:30:14.145Z,21.06
2022-08-21T20:32:44.547Z,20.98
2022-08-21T20:35:15.675Z,20.94
2022-08-21T20:37:45.977Z,20.88
2022-08-21T20:40:33.006Z,20.84
2022-08-21T20:43:07.437Z,20.79
2022-08-21T20:45:43.418Z,20.73
2022-08-21T20:48:17.889Z,20.66
2022-08-21T20:51:00.852Z,20.60
2022-08-21T20:53:43.773Z,20.57
2022-08-21T20:56:28.349Z,20.50
2022-08-21T20:59:13.638Z,20.45
2022-08-21T21:01:46.287Z,20.38
2022-08-21T21:04:37.049Z,20.32
2022-08-21T21:07:12.556Z,20.23
2022-08-21T21:09:49.257Z,20.21
2022-08-21T21:12:28.029Z,20.18
2022-08-21T21:15:10.090Z,20.12
2022-08-21T21:17:49.133Z,20.04
2022-08-21T21:20:29.350Z,20.02
2022-08-21T21:23:16.778Z,19.99
2022-08-21T21:26:01.236Z,19.94
2022-08-21T21:28:44.410Z,19.87
2022-08-21T21:31:18.107Z,19.81
2022-08-21T21:33:50.464Z,19.77
2022-08-21T21:36:32.571Z,19.71
2022-08-21T21:39:13.190Z,19.65
2022-08-21T21:41:54.305Z,19.58
2022-08-21T21:44:43.172Z,19.51
2022-08-21T21:47:27.171Z,19.48
2022-08-21T21:50:23.278Z,19.43
2022-08-21T21:53:15.340Z,19.42
2022-08-21T21:56:08.416Z,19.37
2022-08-21T22:02:01.110Z,19.27
2022-08-21T22:04:51.121Z,19.23
2022-08-21T22:07:32.265Z,19.19
2022-08-21T22:10:19.755Z,19.15
2022-08-21T22:13:13.094Z,19.10
2022-08-21T22:15:55.815Z,19.05
2022-08-21T22:18:30.064Z,19.02
2022-08-21T22:21:13.773Z,19.01
2022-08-21T22:23:49.210Z,18.99
2022-08-21T22:26:25.795Z,18.95
2022-08-21T22:28:57.430Z,18.92
2022-08-21T22:31:31.434Z,18.90
2022-08-21T22:34:17.638Z,18.87
2022-08-21T22:36:59.526Z,18.81
2022-08-21T22:39:38.802Z,18.73
2022-08-21T22:42:14.035Z,18.72
2022-08-21T22:44:53.586Z,18.70
2022-08-21T22:47:30.086Z,18.68
2022-08-21T22:50:04.733Z,18.67
2022-08-21T22:52:40.607Z,18.63
2022-08-21T22:55:26.230Z,18.55
2022-08-21T22:58:14.166Z,18.53
2022-08-21T23:00:57.831Z,18.54
2022-08-21T23:03:34.516Z,18.48
2022-08-21T23:06:12.638Z,18.44
2022-08-21T23:08:46.346Z,18.39
2022-08-21T23:11:24.436Z,18.37
2022-08-21T23:13:57.216Z,18.33
2022-08-21T23:16:47.406Z,18.31
2022-08-21T23:19:38.135Z,18.29
2022-08-21T23:22:38.785Z,18.25
2022-08-21T23:25:46.020Z,18.20
2022-08-21T23:28:29.518Z,18.15
2022-08-21T23:31:13.357Z,18.11
2022-08-21T23:34:05.974Z,18.06
2022-08-21T23:37:06.841Z,18.02
2022-08-21T23:40:11.280Z,17.96
2022-08-21T23:43:04.575Z,17.92
2022-08-21T23:48:46.833Z,17.86
2022-08-21T23:51:26.020Z,17.84
2022-08-21T23:54:08.216Z,17.79
2022-08-21T23:57:00.268Z,17.78
2022-08-21T23:59:46.953Z,17.74
